sensor_id;sensor_type;location;lat;lon;timestamp;pressure;altitude;pressure_sealevel;temperature;humidity
44144;BME280;68165;51.920;4.492;2023-07-13T00:01:43;68236.09;;;21.45;80.35
44144;BME280;68165;51.920;4.492;2023-07-13T00:04:09;68234.44;;;21.44;80.16
44144;BME280;68165;51.920;4.492;2023-07-13T00:06:34;68228.94;;;21.41;80.28
44144;BME280;68165;51.920;4.492;2023-07-13T00:09:00;68227.81;;;21.40;80.33
44144;BME280;68165;51.920;4.492;2023-07-13T00:11:27;68236.53;;;21.43;79.52
44144;BME280;68165;51.920;4.492;2023-07-13T00:13:53;68235.00;;;21.44;78.96
44144;BME280;68165;51.920;4.492;2023-07-13T00:16:18;68228.09;;;21.45;78.50
44144;BME280;68165;51.920;4.492;2023-07-13T00:18:44;68242.72;;;21.49;77.84
44144;BME280;68165;51.920;4.492;2023-07-13T00:21:10;68226.28;;;21.41;78.63
44144;BME280;68165;51.920;4.492;2023-07-13T00:23:39;68235.00;;;21.44;78.80
44144;BME280;68165;51.920;4.492;2023-07-13T00:26:06;68240.63;;;21.49;79.13
44144;BME280;68165;51.920;4.492;2023-07-13T00:28:35;68236.81;;;21.48;79.55
44144;BME280;68165;51.920;4.492;2023-07-13T00:31:01;68239.09;;;21.50;80.37
44144;BME280;68165;51.920;4.492;2023-07-13T00:33:29;68248.50;;;21.56;80.77
44144;BME280;68165;51.920;4.492;2023-07-13T00:35:55;68250.19;;;21.58;80.80
44144;BME280;68165;51.920;4.492;2023-07-13T00:38:21;68247.50;;;21.58;82.02
44144;BME280;68165;51.920;4.492;2023-07-13T00:40:47;68242.84;;;21.51;82.57
44144;BME280;68165;51.920;4.492;2023-07-13T00:43:22;68236.97;;;21.51;83.33
44144;BME280;68165;51.920;4.492;2023-07-13T00:48:17;68223.31;;;21.36;84.68
44144;BME280;68165;51.920;4.492;2023-07-13T00:50:44;68216.28;;;21.25;85.31
44144;BME280;68165;51.920;4.492;2023-07-13T00:53:10;68207.44;;;21.20;85.86
44144;BME280;68165;51.920;4.492;2023-07-13T00:55:36;68200.66;;;21.13;86.47
44144;BME280;68165;51.920;4.492;2023-07-13T00:58:03;68192.06;;;21.03;86.68
44144;BME280;68165;51.920;4.492;2023-07-13T01:00:30;68179.44;;;20.97;86.88
44144;BME280;68165;51.920;4.492;2023-07-13T01:02:56;68175.91;;;20.91;87.54
44144;BME280;68165;51.920;4.492;2023-07-13T01:05:22;68172.34;;;20.86;87.91
44144;BME280;68165;51.920;4.492;2023-07-13T01:07:50;68158.44;;;20.75;88.04
44144;BME280;68165;51.920;4.492;2023-07-13T01:10:18;68163.22;;;20.75;88.08
44144;BME280;68165;51.920;4.492;2023-07-13T01:12:46;68149.47;;;20.67;88.61
44144;BME280;68165;51.920;4.492;2023-07-13T01:17:58;68144.81;;;20.61;88.38
44144;BME280;68165;51.920;4.492;2023-07-13T01:20:24;68146.09;;;20.64;88.10
44144;BME280;68165;51.920;4.492;2023-07-13T01:22:50;68139.34;;;20.58;88.19
44144;BME280;68165;51.920;4.492;2023-07-13T01:25:16;68138.78;;;20.58;87.93
44144;BME280;68165;51.920;4.492;2023-07-13T01:27:41;68134.97;;;20.57;88.13
44144;BME280;68165;51.920;4.492;2023-07-13T01:30:07;68132.19;;;20.54;87.98
44144;BME280;68165;51.920;4.492;2023-07-13T01:32:32;68131.06;;;20.53;88.00
44144;BME280;68165;51.920;4.492;2023-07-13T01:34:59;68120.38;;;20.44;87.24
44144;BME280;68165;51.920;4.492;2023-07-13T01:37:25;68124.72;;;20.45;86.81
44144;BME280;68165;51.920;4.492;2023-07-13T01:39:51;68124.41;;;20.40;86.08
44144;BME280;68165;51.920;4.492;2023-07-13T01:42:18;68116.28;;;20.38;85.82
44144;BME280;68165;51.920;4.492;2023-07-13T01:44:43;68116.28;;;20.38;84.42
44144;BME280;68165;51.920;4.492;2023-07-13T01:47:09;68116.84;;;20.38;83.67
44144;BME280;68165;51.920;4.492;2023-07-13T01:49:35;68113.06;;;20.37;82.04
44144;BME280;68165;51.920;4.492;2023-07-13T01:52:00;68110.81;;;20.35;81.14
44144;BME280;68165;51.920;4.492;2023-07-13T01:54:25;68110.25;;;20.34;80.97
44144;BME280;68165;51.920;4.492;2023-07-13T01:56:51;68114.44;;;20.33;80.57
44144;BME280;68165;51.920;4.492;2023-07-13T01:59:16;68108.97;;;20.31;80.71
44144;BME280;68165;51.920;4.492;2023-07-13T02:01:41;68099.38;;;20.22;81.17
44144;BME280;68165;51.920;4.492;2023-07-13T02:04:07;68106.97;;;20.24;81.55
44144;BME280;68165;51.920;4.492;2023-07-13T02:06:32;68102.22;;;20.25;82.14
44144;BME280;68165;51.920;4.492;2023-07-13T02:08:58;68098.81;;;20.22;82.78
44144;BME280;68165;51.920;4.492;2023-07-13T02:11:24;68104.16;;;20.22;83.44
44144;BME280;68165;51.920;4.492;2023-07-13T02:13:50;68096.44;;;20.17;84.16
44144;BME280;68165;51.920;4.492;2023-07-13T02:16:15;68089.41;;;20.16;85.19
44144;BME280;68165;51.920;4.492;2023-07-13T02:18:41;68089.41;;;20.16;85.98
44144;BME280;68165;51.920;4.492;2023-07-13T02:21:06;68083.41;;;20.13;86.17
44144;BME280;68165;51.920;4.492;2023-07-13T02:23:32;68081.97;;;20.07;87.25
44144;BME280;68165;51.920;4.492;2023-07-13T02:25:58;68074.22;;;20.02;88.02
44144;BME280;68165;51.920;4.492;2023-07-13T02:28:25;68075.38;;;20.03;88.96
44144;BME280;68165;51.920;4.492;2023-07-13T02:30:51;68082.66;;;20.10;89.78
44144;BME280;68165;51.920;4.492;2023-07-13T02:33:17;68089.13;;;20.11;90.20
44144;BME280;68165;51.920;4.492;2023-07-13T02:35:42;68085.34;;;20.10;90.37
44144;BME280;68165;51.920;4.492;2023-07-13T02:38:08;68087.44;;;20.09;90.85
44144;BME280;68165;51.920;4.492;2023-07-13T02:40:33;68080.44;;;20.08;91.26
44144;BME280;68165;51.920;4.492;2023-07-13T02:43:00;68079.72;;;20.05;91.89
44144;BME280;68165;51.920;4.492;2023-07-13T02:45:26;68081.25;;;20.04;92.19
44144;BME280;68165;51.920;4.492;2023-07-13T02:47:51;68077.47;;;20.03;93.00
44144;BME280;68165;51.920;4.492;2023-07-13T02:50:17;68074.09;;;20.00;93.43
44144;BME280;68165;51.920;4.492;2023-07-13T02:52:42;68073.13;;;20.01;93.81
44144;BME280;68165;51.920;4.492;2023-07-13T02:55:08;68075.78;;;20.01;94.42
44144;BME280;68165;51.920;4.492;2023-07-13T02:57:33;68074.50;;;19.97;94.57
44144;BME280;68165;51.920;4.492;2023-07-13T02:59:59;68075.94;;;20.04;94.74
44144;BME280;68165;51.920;4.492;2023-07-13T03:02:24;68074.22;;;20.02;95.17
44144;BME280;68165;51.920;4.492;2023-07-13T03:04:53;68081.97;;;20.07;94.97
44144;BME280;68165;51.920;4.492;2023-07-13T03:07:19;68086.06;;;20.13;95.08
44144;BME280;68165;51.920;4.492;2023-07-13T03:09:44;68092.06;;;20.16;95.33
44144;BME280;68165;51.920;4.492;2023-07-13T03:12:09;68083.97;;;20.13;95.37
44144;BME280;68165;51.920;4.492;2023-07-13T03:14:35;68081.13;;;20.11;96.01
44144;BME280;68165;51.920;4.492;2023-07-13T03:17:00;68076.50;;;20.04;96.81
44144;BME280;68165;51.920;4.492;2023-07-13T03:19:25;68074.22;;;20.02;97.25
44144;BME280;68165;51.920;4.492;2023-07-13T03:21:51;68072.97;;;19.98;97.99
44144;BME280;68165;51.920;4.492;2023-07-13T03:24:16;68073.53;;;19.99;98.64
44144;BME280;68165;51.920;4.492;2023-07-13T03:26:41;68074.50;;;19.97;98.51
44144;BME280;68165;51.920;4.492;2023-07-13T03:29:08;68070.31;;;19.98;98.84
44144;BME280;68165;51.920;4.492;2023-07-13T03:31:35;68069.03;;;19.95;98.92
44144;BME280;68165;51.920;4.492;2023-07-13T03:34:02;68059.06;;;19.88;99.41
44144;BME280;68165;51.920;4.492;2023-07-13T03:36:29;68063.56;;;19.92;99.58
44144;BME280;68165;51.920;4.492;2023-07-13T03:38:58;68062.88;;;19.89;100.00
44144;BME280;68165;51.920;4.492;2023-07-13T03:41:24;68059.06;;;19.88;100.00
44144;BME280;68165;51.920;4.492;2023-07-13T03:43:50;68059.63;;;19.89;100.00
44144;BME280;68165;51.920;4.492;2023-07-13T03:46:16;68063.72;;;19.95;100.00
44144;BME280;68165;51.920;4.492;2023-07-13T03:48:46;68069.75;;;19.98;99.73
44144;BME280;68165;51.920;4.492;2023-07-13T03:51:13;68070.16;;;19.96;100.00
44144;BME280;68165;51.920;4.492;2023-07-13T03:53:41;68066.53;;;19.97;100.00
44144;BME280;68165;51.920;4.492;2023-07-13T03:56:07;68077.47;;;20.03;100.00
44144;BME280;68165;51.920;4.492;2023-07-13T03:58:35;68075.22;;;20.01;100.00
44144;BME280;68165;51.920;4.492;2023-07-13T04:01:02;68079.72;;;20.05;100.00
44144;BME280;68165;51.920;4.492;2023-07-13T04:03:27;68080.44;;;20.08;100.00
44144;BME280;68165;51.920;4.492;2023-07-13T04:05:56;68082.53;;;20.07;100.00
44144;BME280;68165;51.920;4.492;2023-07-13T04:08:34;68080.00;;;20.10;100.00
44144;BME280;68165;51.920;4.492;2023-07-13T04:11:00;68082.09;;;20.09;100.00
44144;BME280;68165;51.920;4.492;2023-07-13T04:13:26;68079.31;;;20.07;100.00
44144;BME280;68165;51.920;4.492;2023-07-13T04:15:52;68093.22;;;20.17;100.00
44144;BME280;68165;51.920;4.492;2023-07-13T04:18:18;68103.47;;;20.28;100.00
44144;BME280;68165;51.920;4.492;2023-07-13T04:20:45;68110.09;;;20.32;100.00
44144;BME280;68165;51.920;4.492;2023-07-13T04:23:10;68119.09;;;20.40;99.78
44144;BME280;68165;51.920;4.492;2023-07-13T04:25:37;68121.19;;;20.40;99.69
44144;BME280;68165;51.920;4.492;2023-07-13T04:28:03;68122.72;;;20.38;100.00
44144;BME280;68165;51.920;4.492;2023-07-13T04:30:28;68113.63;;;20.38;100.00
44144;BME280;68165;51.920;4.492;2023-07-13T04:32:54;68124.31;;;20.47;99.82
44144;BME280;68165;51.920;4.492;2023-07-13T04:35:20;68142.16;;;20.61;98.98
44144;BME280;68165;51.920;4.492;2023-07-13T04:37:47;68152.13;;;20.67;98.74
44144;BME280;68165;51.920;4.492;2023-07-13T04:40:13;68150.72;;;20.71;98.23
44144;BME280;68165;51.920;4.492;2023-07-13T04:42:39;68170.69;;;20.84;97.70
44144;BME280;68165;51.920;4.492;2023-07-13T04:45:06;68170.81;;;20.87;97.43
44144;BME280;68165;51.920;4.492;2023-07-13T04:47:32;68182.09;;;20.97;97.33
44144;BME280;68165;51.920;4.492;2023-07-13T04:49:58;68192.50;;;21.11;96.89
44144;BME280;68165;51.920;4.492;2023-07-13T04:52:23;68211.91;;;21.24;96.39
44144;BME280;68165;51.920;4.492;2023-07-13T04:54:49;68215.84;;;21.27;95.72
44144;BME280;68165;51.920;4.492;2023-07-13T04:57:16;68216.72;;;21.33;95.37
44144;BME280;68165;51.920;4.492;2023-07-13T04:59:41;68221.50;;;21.32;95.01
44144;BME280;68165;51.920;4.492;2023-07-13T05:02:06;68235.00;;;21.44;94.11
44144;BME280;68165;51.920;4.492;2023-07-13T05:04:32;68242.72;;;21.49;93.46
44144;BME280;68165;51.920;4.492;2023-07-13T05:06:58;68248.34;;;21.54;93.04
44144;BME280;68165;51.920;4.492;2023-07-13T05:09:24;68237.22;;;21.46;93.04
44144;BME280;68165;51.920;4.492;2023-07-13T05:11:49;68240.75;;;21.52;92.75
44144;BME280;68165;51.920;4.492;2023-07-13T05:14:14;68228.25;;;21.38;92.77
44144;BME280;68165;51.920;4.492;2023-07-13T05:16:41;68219.38;;;21.33;93.08
44144;BME280;68165;51.920;4.492;2023-07-13T05:19:07;68218.81;;;21.32;93.34
44144;BME280;68165;51.920;4.492;2023-07-13T05:21:33;68220.94;;;21.32;93.38
44144;BME280;68165;51.920;4.492;2023-07-13T05:23:58;68216.97;;;21.28;93.58
44144;BME280;68165;51.920;4.492;2023-07-13T05:26:24;68211.09;;;21.28;93.47
44144;BME280;68165;51.920;4.492;2023-07-13T05:28:49;68223.59;;;21.32;93.17
44144;BME280;68165;51.920;4.492;2023-07-13T05:31:14;68223.88;;;21.37;93.27
44144;BME280;68165;51.920;4.492;2023-07-13T05:33:40;68238.22;;;21.45;92.84
44144;BME280;68165;51.920;4.492;2023-07-13T05:36:05;68259.03;;;21.64;92.36
44144;BME280;68165;51.920;4.492;2023-07-13T05:38:32;68269.63;;;21.80;91.41
44144;BME280;68165;51.920;4.492;2023-07-13T05:40:58;68291.28;;;21.95;90.39
44144;BME280;68165;51.920;4.492;2023-07-13T05:43:23;68267.63;;;21.74;90.98
44144;BME280;68165;51.920;4.492;2023-07-13T05:45:52;68201.22;;;21.14;94.34
44144;BME280;68165;51.920;4.492;2023-07-13T05:48:18;68150.56;;;20.68;97.43
44144;BME280;68165;51.920;4.492;2023-07-13T05:50:43;68060.19;;;19.89;97.89
44144;BME280;68165;51.920;4.492;2023-07-13T05:53:09;67994.13;;;19.25;95.52
44144;BME280;68165;51.920;4.492;2023-07-13T05:55:34;67928.56;;;18.68;95.90
44144;BME280;68165;51.920;4.492;2023-07-13T05:58:00;67886.44;;;18.30;98.66
44144;BME280;68165;51.920;4.492;2023-07-13T06:00:27;67863.56;;;18.12;100.00
44144;BME280;68165;51.920;4.492;2023-07-13T06:02:53;67853.16;;;17.98;100.00
44144;BME280;68165;51.920;4.492;2023-07-13T06:05:18;67829.75;;;17.79;100.00
44144;BME280;68165;51.920;4.492;2023-07-13T06:07:43;67827.66;;;17.80;100.00
44144;BME280;68165;51.920;4.492;2023-07-13T06:10:09;67829.34;;;17.81;100.00
44144;BME280;68165;51.920;4.492;2023-07-13T06:12:34;67819.78;;;17.73;100.00
44144;BME280;68165;51.920;4.492;2023-07-13T06:15:00;67831.00;;;17.83;100.00
44144;BME280;68165;51.920;4.492;2023-07-13T06:17:25;67824.28;;;17.77;100.00
44144;BME280;68165;51.920;4.492;2023-07-13T06:19:51;67816.97;;;17.70;100.00
44144;BME280;68165;51.920;4.492;2023-07-13T06:22:16;67811.38;;;17.65;100.00
44144;BME280;68165;51.920;4.492;2023-07-13T06:24:41;67820.91;;;17.74;100.00
44144;BME280;68165;51.920;4.492;2023-07-13T06:27:07;67834.22;;;17.83;100.00
44144;BME280;68165;51.920;4.492;2023-07-13T06:29:32;67834.53;;;17.88;100.00
44144;BME280;68165;51.920;4.492;2023-07-13T06:31:58;67850.50;;;17.98;100.00
44144;BME280;68165;51.920;4.492;2023-07-13T06:34:23;67853.47;;;18.03;100.00
44144;BME280;68165;51.920;4.492;2023-07-13T06:36:48;67875.75;;;18.21;100.00
44144;BME280;68165;51.920;4.492;2023-07-13T06:39:14;67895.25;;;18.36;100.00
44144;BME280;68165;51.920;4.492;2023-07-13T06:41:42;67912.25;;;18.54;100.00
44144;BME280;68165;51.920;4.492;2023-07-13T06:44:08;67925.75;;;18.66;100.00
44144;BME280;68165;51.920;4.492;2023-07-13T06:46:33;67940.75;;;18.77;100.00
44144;BME280;68165;51.920;4.492;2023-07-13T06:48:59;67956.38;;;18.98;100.00
44144;BME280;68165;51.920;4.492;2023-07-13T06:51:24;67976.59;;;19.16;100.00
44144;BME280;68165;51.920;4.492;2023-07-13T06:53:51;67996.09;;;19.32;100.00
44144;BME280;68165;51.920;4.492;2023-07-13T06:56:16;68019.44;;;19.48;100.00
44144;BME280;68165;51.920;4.492;2023-07-13T06:58:42;68031.53;;;19.64;100.00
44144;BME280;68165;51.920;4.492;2023-07-13T07:01:08;68041.91;;;19.68;100.00
44144;BME280;68165;51.920;4.492;2023-07-13T07:03:34;68045.03;;;19.76;100.00
44144;BME280;68165;51.920;4.492;2023-07-13T07:06:11;68049.66;;;19.82;100.00
44144;BME280;68165;51.920;4.492;2023-07-13T07:08:38;68065.25;;;19.94;100.00
44144;BME280;68165;51.920;4.492;2023-07-13T07:11:03;68084.38;;;20.11;100.00
44144;BME280;68165;51.920;4.492;2023-07-13T07:13:28;68122.88;;;20.41;100.00
44144;BME280;68165;51.920;4.492;2023-07-13T07:15:54;68156.91;;;20.76;100.00
44144;BME280;68165;51.920;4.492;2023-07-13T07:18:20;68189.69;;;21.08;100.00
44144;BME280;68165;51.920;4.492;2023-07-13T07:20:45;68203.06;;;21.18;100.00
44144;BME280;68165;51.920;4.492;2023-07-13T07:23:10;68199.53;;;21.12;100.00
44144;BME280;68165;51.920;4.492;2023-07-13T07:25:36;68174.06;;;20.87;100.00
44144;BME280;68165;51.920;4.492;2023-07-13T07:28:07;68143.41;;;20.64;100.00
44144;BME280;68165;51.920;4.492;2023-07-13T07:30:33;68123.47;;;20.51;100.00
44144;BME280;68165;51.920;4.492;2023-07-13T07:32:58;68124.56;;;20.43;100.00
44144;BME280;68165;51.920;4.492;2023-07-13T07:35:23;68130.31;;;20.50;100.00
44144;BME280;68165;51.920;4.492;2023-07-13T07:37:49;68133.31;;;20.55;100.00
44144;BME280;68165;51.920;4.492;2023-07-13T07:40:14;68146.81;;;20.67;100.00
44144;BME280;68165;51.920;4.492;2023-07-13T07:42:40;68181.09;;;20.98;100.00
44144;BME280;68165;51.920;4.492;2023-07-13T07:45:05;68225.44;;;21.36;99.90
44144;BME280;68165;51.920;4.492;2023-07-13T07:47:31;68244.97;;;21.51;99.21
44144;BME280;68165;51.920;4.492;2023-07-13T07:49:57;68301.00;;;22.06;96.90
44144;BME280;68165;51.920;4.492;2023-07-13T07:52:22;68365.75;;;22.64;93.57
44144;BME280;68165;51.920;4.492;2023-07-13T07:54:47;68413.81;;;23.10;91.33
44144;BME280;68165;51.920;4.492;2023-07-13T07:57:13;68441.84;;;23.33;90.69
44144;BME280;68165;51.920;4.492;2023-07-13T07:59:38;68426.38;;;23.24;91.35
44144;BME280;68165;51.920;4.492;2023-07-13T08:02:04;68424.22;;;23.14;90.89
44144;BME280;68165;51.920;4.492;2023-07-13T08:04:29;68414.78;;;23.08;89.89
44144;BME280;68165;51.920;4.492;2023-07-13T08:06:54;68377.63;;;22.75;90.00
44144;BME280;68165;51.920;4.492;2023-07-13T08:09:21;68286.34;;;21.93;93.25
44144;BME280;68165;51.920;4.492;2023-07-13T08:11:47;68187.00;;;20.99;97.29
44144;BME280;68165;51.920;4.492;2023-07-13T08:14:12;68146.81;;;20.67;98.87
44144;BME280;68165;51.920;4.492;2023-07-13T08:16:37;68144.97;;;20.63;98.19
44144;BME280;68165;51.920;4.492;2023-07-13T08:19:03;68151.00;;;20.66;97.77
44144;BME280;68165;51.920;4.492;2023-07-13T08:21:29;68180.25;;;20.93;97.28
44144;BME280;68165;51.920;4.492;2023-07-13T08:23:55;68219.94;;;21.33;97.04
44144;BME280;68165;51.920;4.492;2023-07-13T08:26:21;68294.25;;;22.00;95.18
44144;BME280;68165;51.920;4.492;2023-07-13T08:28:47;68377.06;;;22.74;93.21
44144;BME280;68165;51.920;4.492;2023-07-13T08:31:12;68425.66;;;23.20;92.11
44144;BME280;68165;51.920;4.492;2023-07-13T08:33:39;68474.13;;;23.64;90.49
44144;BME280;68165;51.920;4.492;2023-07-13T08:36:06;68525.44;;;24.10;87.69
44144;BME280;68165;51.920;4.492;2023-07-13T08:38:32;68531.75;;;24.09;85.99
44144;BME280;68165;51.920;4.492;2023-07-13T08:40:57;68422.41;;;23.10;89.77
44144;BME280;68165;51.920;4.492;2023-07-13T08:43:26;68306.63;;;22.11;93.12
44144;BME280;68165;51.920;4.492;2023-07-13T08:49:10;68155.78;;;20.75;99.73
44144;BME280;68165;51.920;4.492;2023-07-13T08:54:32;68253.13;;;21.63;99.24
44144;BME280;68165;51.920;4.492;2023-07-13T08:57:03;68300.31;;;22.03;97.67
44144;BME280;68165;51.920;4.492;2023-07-13T08:59:34;68343.81;;;22.45;95.58
44144;BME280;68165;51.920;4.492;2023-07-13T09:02:39;68282.97;;;21.90;93.75
44144;BME280;68165;51.920;4.492;2023-07-13T09:10:46;68107.81;;;20.30;100.00
44144;BME280;68165;51.920;4.492;2023-07-13T09:15:43;68083.63;;;20.08;100.00
44144;BME280;68165;51.920;4.492;2023-07-13T09:18:35;68077.47;;;20.03;100.00
44144;BME280;68165;51.920;4.492;2023-07-13T09:21:20;68068.63;;;19.97;100.00
44144;BME280;68165;51.920;4.492;2023-07-13T09:23:48;68061.72;;;19.88;100.00
44144;BME280;68165;51.920;4.492;2023-07-13T09:26:19;68068.06;;;19.96;100.00
44144;BME280;68165;51.920;4.492;2023-07-13T09:28:52;68080.84;;;20.06;100.00
44144;BME280;68165;51.920;4.492;2023-07-13T09:31:34;68127.66;;;20.50;100.00
44144;BME280;68165;51.920;4.492;2023-07-13T09:34:02;68185.06;;;21.02;100.00
44144;BME280;68165;51.920;4.492;2023-07-13T09:36:29;68271.28;;;21.82;100.00
44144;BME280;68165;51.920;4.492;2023-07-13T09:44:29;68440.16;;;23.31;89.28
44144;BME280;68165;51.920;4.492;2023-07-13T09:46:58;68432.00;;;23.29;89.20
44144;BME280;68165;51.920;4.492;2023-07-13T09:49:34;68436.22;;;23.28;89.10
44144;BME280;68165;51.920;4.492;2023-07-13T09:52:06;68452.41;;;23.40;89.13
44144;BME280;68165;51.920;4.492;2023-07-13T09:54:36;68503.88;;;23.88;87.65
44144;BME280;68165;51.920;4.492;2023-07-13T09:57:03;68481.72;;;23.66;89.19
44144;BME280;68165;51.920;4.492;2023-07-13T09:59:40;68483.00;;;23.70;89.33
44144;BME280;68165;51.920;4.492;2023-07-13T10:05:16;68466.66;;;23.55;87.94
44144;BME280;68165;51.920;4.492;2023-07-13T10:07:44;68435.66;;;23.27;88.18
44144;BME280;68165;51.920;4.492;2023-07-13T10:10:16;68420.88;;;23.11;89.14
44144;BME280;68165;51.920;4.492;2023-07-13T10:12:43;68405.50;;;22.95;89.68
44144;BME280;68165;51.920;4.492;2023-07-13T10:15:27;68411.44;;;23.05;89.32
44144;BME280;68165;51.920;4.492;2023-07-13T10:17:54;68413.53;;;23.05;88.70
44144;BME280;68165;51.920;4.492;2023-07-13T10:20:21;68399.44;;;22.92;87.68
44144;BME280;68165;51.920;4.492;2023-07-13T10:22:59;68393.94;;;22.90;87.42
44144;BME280;68165;51.920;4.492;2023-07-13T10:25:31;68395.22;;;22.93;87.81
44144;BME280;68165;51.920;4.492;2023-07-13T10:28:02;68403.09;;;23.00;87.51
44144;BME280;68165;51.920;4.492;2023-07-13T10:30:33;68408.03;;;23.02;86.05
44144;BME280;68165;51.920;4.492;2023-07-13T10:33:02;68440.16;;;23.31;84.80
44144;BME280;68165;51.920;4.492;2023-07-13T10:35:30;68475.69;;;23.63;82.25
44144;BME280;68165;51.920;4.492;2023-07-13T10:38:26;68492.59;;;23.78;76.84
44144;BME280;68165;51.920;4.492;2023-07-13T10:41:00;68480.75;;;23.68;75.39
44144;BME280;68165;51.920;4.492;2023-07-13T10:43:31;68485.00;;;23.76;73.92
44144;BME280;68165;51.920;4.492;2023-07-13T10:45:59;68521.91;;;24.05;72.28
44144;BME280;68165;51.920;4.492;2023-07-13T10:48:26;68574.94;;;24.52;69.34
44144;BME280;68165;51.920;4.492;2023-07-13T10:50:52;68615.41;;;24.86;66.44
44144;BME280;68165;51.920;4.492;2023-07-13T10:53:32;68647.16;;;25.17;65.98
44144;BME280;68165;51.920;4.492;2023-07-13T10:56:00;68634.34;;;25.08;66.62
44144;BME280;68165;51.920;4.492;2023-07-13T10:58:37;68638.13;;;25.09;66.11
44144;BME280;68165;51.920;4.492;2023-07-13T11:01:06;68642.50;;;25.10;65.25
44144;BME280;68165;51.920;4.492;2023-07-13T11:03:34;68654.78;;;25.19;65.16
44144;BME280;68165;51.920;4.492;2023-07-13T11:06:13;68665.78;;;25.34;65.16
44144;BME280;68165;51.920;4.492;2023-07-13T11:08:54;68655.06;;;25.24;63.71
44144;BME280;68165;51.920;4.492;2023-07-13T11:18:54;68595.66;;;24.68;64.73
44144;BME280;68165;51.920;4.492;2023-07-13T11:21:33;68595.25;;;24.70;64.05
44144;BME280;68165;51.920;4.492;2023-07-13T11:24:16;68615.00;;;24.88;63.01
44144;BME280;68165;51.920;4.492;2023-07-13T11:31:58;68639.81;;;25.10;60.61
44144;BME280;68165;51.920;4.492;2023-07-13T11:34:34;68648.16;;;25.15;60.89
44144;BME280;68165;51.920;4.492;2023-07-13T11:37:01;68651.25;;;25.23;60.41
44144;BME280;68165;51.920;4.492;2023-07-13T11:42:07;68673.13;;;25.40;58.57
44144;BME280;68165;51.920;4.492;2023-07-13T11:44:41;68683.28;;;25.49;57.94
44144;BME280;68165;51.920;4.492;2023-07-13T11:47:14;68691.75;;;25.57;57.88
44144;BME280;68165;51.920;4.492;2023-07-13T11:49:44;68702.34;;;25.64;56.40
44144;BME280;68165;51.920;4.492;2023-07-13T11:52:18;68703.19;;;25.70;55.65
44144;BME280;68165;51.920;4.492;2023-07-13T11:54:54;68720.13;;;25.85;56.69
44144;BME280;68165;51.920;4.492;2023-07-13T11:59:54;68739.47;;;25.95;55.09
44144;BME280;68165;51.920;4.492;2023-07-13T12:02:36;68756.69;;;26.15;56.04
44144;BME280;68165;51.920;4.492;2023-07-13T12:05:04;68759.50;;;26.18;54.12
44144;BME280;68165;51.920;4.492;2023-07-13T12:07:31;68753.31;;;26.12;54.25
44144;BME280;68165;51.920;4.492;2023-07-13T12:10:17;68760.66;;;26.19;54.39
44144;BME280;68165;51.920;4.492;2023-07-13T12:12:53;68772.09;;;26.31;54.51
44144;BME280;68165;51.920;4.492;2023-07-13T12:15:20;68781.28;;;26.32;54.81
44144;BME280;68165;51.920;4.492;2023-07-13T12:17:47;68800.75;;;26.55;54.69
44144;BME280;68165;51.920;4.492;2023-07-13T12:20:21;68805.28;;;26.59;52.12
44144;BME280;68165;51.920;4.492;2023-07-13T12:22:50;68794.56;;;26.49;51.38
44144;BME280;68165;51.920;4.492;2023-07-13T12:25:16;68796.69;;;26.49;51.38
44144;BME280;68165;51.920;4.492;2023-07-13T12:27:46;68802.59;;;26.59;51.15
44144;BME280;68165;51.920;4.492;2023-07-13T12:30:24;68799.22;;;26.56;51.01
44144;BME280;68165;51.920;4.492;2023-07-13T12:33:06;68792.84;;;26.48;51.10
44144;BME280;68165;51.920;4.492;2023-07-13T12:35:40;68806.28;;;26.57;51.63
44144;BME280;68165;51.920;4.492;2023-07-13T12:38:10;68814.19;;;26.64;50.72
44144;BME280;68165;51.920;4.492;2023-07-13T12:40:36;68809.25;;;26.62;50.71
44144;BME280;68165;51.920;4.492;2023-07-13T12:43:02;68813.19;;;26.66;51.23
44144;BME280;68165;51.920;4.492;2023-07-13T12:45:32;68827.75;;;26.76;50.47
44144;BME280;68165;51.920;4.492;2023-07-13T12:48:04;68836.34;;;26.87;50.83
44144;BME280;68165;51.920;4.492;2023-07-13T12:50:37;68844.72;;;26.92;49.76
44144;BME280;68165;51.920;4.492;2023-07-13T12:53:05;68830.84;;;26.84;49.23
44144;BME280;68165;51.920;4.492;2023-07-13T12:55:48;68814.88;;;26.67;49.12
44144;BME280;68165;51.920;4.492;2023-07-13T12:58:46;68810.38;;;26.63;49.17
44144;BME280;68165;51.920;4.492;2023-07-13T13:01:16;68796.25;;;26.51;47.47
44144;BME280;68165;51.920;4.492;2023-07-13T13:03:48;68791.44;;;26.41;48.36
44144;BME280;68165;51.920;4.492;2023-07-13T13:08:45;68813.75;;;26.66;48.60
44144;BME280;68165;51.920;4.492;2023-07-13T13:11:12;68825.63;;;26.77;48.02
44144;BME280;68165;51.920;4.492;2023-07-13T13:13:41;68823.50;;;26.77;48.10
44144;BME280;68165;51.920;4.492;2023-07-13T13:18:45;68835.22;;;26.86;46.11
44144;BME280;68165;51.920;4.492;2023-07-13T13:21:10;68833.09;;;26.86;45.91
44144;BME280;68165;51.920;4.492;2023-07-13T13:23:36;68837.91;;;26.86;45.51
44144;BME280;68165;51.920;4.492;2023-07-13T13:26:02;68819.97;;;26.72;45.08
44144;BME280;68165;51.920;4.492;2023-07-13T13:28:28;68814.75;;;26.65;45.58
44144;BME280;68165;51.920;4.492;2023-07-13T13:30:54;68817.00;;;26.67;45.61
44144;BME280;68165;51.920;4.492;2023-07-13T13:33:21;68826.06;;;26.75;45.38
44144;BME280;68165;51.920;4.492;2023-07-13T13:35:47;68822.94;;;26.77;45.08
44144;BME280;68165;51.920;4.492;2023-07-13T13:38:17;68824.78;;;26.81;44.40
44144;BME280;68165;51.920;4.492;2023-07-13T13:40:45;68831.41;;;26.85;43.43
44144;BME280;68165;51.920;4.492;2023-07-13T13:43:15;68842.59;;;26.92;43.31
44144;BME280;68165;51.920;4.492;2023-07-13T13:45:44;68848.25;;;26.97;42.98
44144;BME280;68165;51.920;4.492;2023-07-13T13:48:15;68853.19;;;26.99;43.29
44144;BME280;68165;51.920;4.492;2023-07-13T13:50:41;68860.66;;;27.08;43.52
44144;BME280;68165;51.920;4.492;2023-07-13T13:53:10;68859.41;;;27.05;43.43